Time;durP1;ratioP1;P1;durP2;ratioP2;P2;SDS_P1;SDS_P2;PMS_P1;PMS_P2;Temp;Humidity;BMP_temperature;BMP_pressure;BME280_temperature;BME280_humidity;BME280_pressure;Samples;Min_cycle;Max_cycle;Signal;HPM_P1;HPM_P2
2023/01/25 00:01:03;;;;;;;20.80;18.25;;;11.50;91.50;;;;;;4588056;19;20025;-36
2023/01/25 00:02:36;;;;;;;20.43;18.23;;;11.50;91.80;;;;;;4588261;19;20017;-38
2023/01/25 00:04:09;;;;;;;20.50;17.00;;;11.60;92.00;;;;;;4587970;19;20483;-40
2023/01/25 00:05:40;;;;;;;22.40;19.08;;;11.60;92.00;;;;;;4588133;19;21061;-39
2023/01/25 00:07:13;;;;;;;19.47;17.10;;;11.60;92.00;;;;;;4587764;19;20011;-37
2023/01/25 00:08:52;;;;;;;22.47;18.10;;;11.60;91.90;;;;;;4588106;19;20565;-37
2023/01/25 00:10:23;;;;;;;18.40;15.80;;;11.60;91.90;;;;;;4588063;19;20405;-35
2023/01/25 00:11:57;;;;;;;19.00;15.60;;;11.60;91.90;;;;;;4587511;19;20496;-43
2023/01/25 00:13:28;;;;;;;19.07;15.93;;;11.60;91.90;;;;;;4586923;19;20563;-34
2023/01/25 00:14:59;;;;;;;17.83;15.63;;;11.60;91.90;;;;;;4589792;19;20471;-38
2023/01/25 00:16:31;;;;;;;18.13;16.08;;;11.60;91.90;;;;;;4590217;19;20007;-37
2023/01/25 00:18:04;;;;;;;19.27;17.17;;;11.50;91.80;;;;;;4590652;19;20027;-35
2023/01/25 00:19:36;;;;;;;18.33;15.57;;;11.50;91.80;;;;;;4589963;19;21004;-33
2023/01/25 00:21:15;;;;;;;20.45;16.45;;;11.50;91.70;;;;;;4589474;19;20421;-39
2023/01/25 00:22:46;;;;;;;19.20;17.10;;;11.60;91.70;;;;;;4590516;19;19998;-37
2023/01/25 00:24:18;;;;;;;22.15;18.48;;;11.60;91.70;;;;;;4588724;19;20466;-36
2023/01/25 00:25:57;;;;;;;20.17;17.67;;;11.50;91.70;;;;;;4589379;19;20041;-35
2023/01/25 00:27:29;;;;;;;19.27;16.40;;;11.60;91.80;;;;;;4588631;19;20467;-34
2023/01/25 00:29:00;;;;;;;24.10;19.00;;;11.60;91.70;;;;;;4593539;19;20771;-36
2023/01/25 00:30:32;;;;;;;;;;;11.50;91.70;;;;;;4594149;19;20014;-39
2023/01/25 00:32:23;;;;;;;19.97;17.33;;;11.50;91.80;;;;;;4593949;19;19971;-33
2023/01/25 00:34:20;;;;;;;17.77;15.82;;;11.50;91.80;;;;;;4593689;19;20011;-36
2023/01/25 00:35:54;;;;;;;20.60;17.70;;;11.60;91.80;;;;;;4593444;19;20034;-39
2023/01/25 00:37:46;;;;;;;21.50;19.20;;;11.60;91.80;;;;;;4593568;19;20432;-39
2023/01/25 00:39:17;;;;;;;21.77;18.93;;;11.60;92.00;;;;;;4593467;19;20409;-36
2023/01/25 00:40:48;;;;;;;19.33;17.00;;;11.60;91.90;;;;;;4593864;19;21011;-42
2023/01/25 00:42:20;;;;;;;20.48;17.30;;;11.50;91.80;;;;;;4593369;19;20018;-36
2023/01/25 00:43:52;;;;;;;19.33;17.13;;;11.50;91.80;;;;;;4594509;19;20073;-38
2023/01/25 00:45:25;;;;;;;18.50;16.50;;;11.50;91.80;;;;;;4594753;19;20436;-35
2023/01/25 00:46:57;;;;;;;18.47;16.47;;;11.50;91.80;;;;;;4594590;19;20433;-37
2023/01/25 00:48:28;;;;;;;18.98;16.63;;;11.50;91.80;;;;;;4594163;19;20429;-37
2023/01/25 00:50:00;;;;;;;19.70;16.90;;;11.50;91.80;;;;;;4594389;19;20033;-36
2023/01/25 00:51:31;;;;;;;19.55;16.17;;;11.50;91.80;;;;;;4594651;19;20010;-35
2023/01/25 00:53:02;;;;;;;20.20;17.33;;;11.60;91.90;;;;;;4591667;19;20037;-38
2023/01/25 00:54:34;;;;;;;18.58;16.55;;;11.60;91.90;;;;;;4593720;19;20498;-37
2023/01/25 00:56:06;;;;;;;20.20;17.40;;;11.50;91.80;;;;;;4593303;19;20070;-39
2023/01/25 00:57:39;;;;;;;27.20;21.03;;;11.60;91.90;;;;;;4594169;19;20999;-40
2023/01/25 00:59:12;;;;;;;21.93;17.27;;;11.60;91.90;;;;;;4593903;19;21068;-37
2023/01/25 01:00:43;;;;;;;20.60;16.77;;;11.60;91.90;;;;;;4594337;19;20520;-41
2023/01/25 01:02:15;;;;;;;18.50;16.50;;;11.50;91.80;;;;;;4594154;19;20089;-41
2023/01/25 01:03:47;;;;;;;19.10;16.47;;;11.50;91.80;;;;;;4594674;19;20017;-36
2023/01/25 01:05:18;;;;;;;20.83;16.58;;;11.50;91.80;;;;;;4593877;19;20437;-37
2023/01/25 01:06:52;;;;;;;20.20;16.97;;;11.50;91.80;;;;;;4591540;19;20010;-39
2023/01/25 01:08:24;;;;;;;25.87;20.27;;;11.50;91.80;;;;;;4593219;19;20445;-39
2023/01/25 01:09:55;;;;;;;25.40;19.92;;;11.60;91.80;;;;;;4593826;19;20921;-35
2023/01/25 01:11:30;;;;;;;25.90;20.63;;;11.50;91.80;;;;;;4593964;19;20027;-39
2023/01/25 01:13:01;;;;;;;22.53;19.57;;;11.50;91.80;;;;;;4592088;19;20488;-40
2023/01/25 01:14:32;;;;;;;22.42;20.02;;;11.50;91.70;;;;;;4594227;19;20536;-38
2023/01/25 01:16:07;;;;;;;27.10;21.42;;;11.50;91.70;;;;;;4593480;19;20353;-38
2023/01/25 01:17:38;;;;;;;27.83;22.73;;;11.60;91.80;;;;;;4593870;19;20006;-39
2023/01/25 01:19:10;;;;;;;26.30;21.10;;;11.50;91.70;;;;;;4593718;19;20437;-37
2023/01/25 01:20:51;;;;;;;25.77;21.47;;;11.50;91.80;;;;;;4594345;19;20447;-33
2023/01/25 01:22:23;;;;;;;22.43;19.37;;;11.50;91.90;;;;;;4592260;19;20417;-36
2023/01/25 01:23:56;;;;;;;24.33;20.60;;;11.50;91.80;;;;;;4592889;19;20467;-38
2023/01/25 01:25:27;;;;;;;20.30;17.98;;;11.40;91.90;;;;;;4594020;19;20483;-33
2023/01/25 01:26:58;;;;;;;22.42;20.02;;;11.50;92.00;;;;;;4594120;19;20014;-39
2023/01/25 01:28:30;;;;;;;25.67;20.67;;;11.50;91.90;;;;;;4592217;19;20025;-40
2023/01/25 01:30:04;;;;;;;24.00;19.47;;;11.50;91.90;;;;;;4592187;19;20344;-43
2023/01/25 01:31:36;;;;;;;21.03;17.63;;;11.50;91.70;;;;;;4590810;19;20504;-34
2023/01/25 01:33:08;;;;;;;25.20;20.45;;;11.50;91.80;;;;;;4592164;19;20536;-41
2023/01/25 01:34:39;;;;;;;27.75;21.65;;;11.50;91.90;;;;;;4593274;19;20007;-35
2023/01/25 01:36:13;;;;;;;24.85;20.33;;;11.50;91.80;;;;;;4593140;19;20500;-36
2023/01/25 01:37:46;;;;;;;26.33;20.97;;;11.50;91.80;;;;;;4593008;19;20021;-42
2023/01/25 01:39:18;;;;;;;22.40;17.93;;;11.50;91.80;;;;;;4593876;19;20440;-42
2023/01/25 01:40:52;;;;;;;21.73;18.20;;;11.50;91.80;;;;;;4591726;19;20445;-37
2023/01/25 01:42:23;;;;;;;20.90;18.00;;;11.50;91.80;;;;;;4593182;19;20803;-36
2023/01/25 01:43:56;;;;;;;22.00;16.90;;;11.50;91.70;;;;;;4593438;19;20070;-36
2023/01/25 01:45:55;;;;;;;23.20;18.97;;;11.50;91.70;;;;;;4592396;19;20441;-36
2023/01/25 01:47:32;;;;;;;33.50;22.30;;;11.50;91.70;;;;;;4590729;19;20516;-39
2023/01/25 01:49:15;;;;;;;42.87;23.73;;;11.50;91.80;;;;;;4590906;19;20487;-42
2023/01/25 01:50:49;;;;;;;44.00;25.17;;;11.50;91.70;;;;;;4591086;19;20436;-37
2023/01/25 01:52:26;;;;;;;33.87;22.17;;;11.60;91.80;;;;;;4590187;19;20781;-38
2023/01/25 01:54:20;;;;;;;30.77;21.10;;;11.50;91.80;;;;;;4590642;19;20514;-35
2023/01/25 01:55:52;;;;;;;34.17;22.53;;;11.50;91.70;;;;;;4591530;19;20458;-33
2023/01/25 01:57:31;;;;;;;18.97;15.33;;;11.50;91.80;;;;;;4590762;19;20437;-38
2023/01/25 01:59:03;;;;;;;19.87;15.87;;;11.50;91.70;;;;;;4590699;19;20478;-37
2023/01/25 02:00:37;;;;;;;16.70;14.47;;;11.50;91.60;;;;;;4590145;19;20479;-37
2023/01/25 02:02:11;;;;;;;16.83;14.40;;;11.50;91.70;;;;;;4591252;19;20428;-40
2023/01/25 02:03:42;;;;;;;18.17;15.30;;;11.40;91.60;;;;;;4590456;19;20618;-39
2023/01/25 02:05:23;;;;;;;16.83;14.18;;;11.50;91.60;;;;;;4590427;19;21025;-38
2023/01/25 02:07:05;;;;;;;16.25;13.98;;;11.50;91.70;;;;;;4591165;19;20003;-41
2023/01/25 02:08:39;;;;;;;15.93;14.23;;;11.50;91.70;;;;;;4590746;19;20014;-43
2023/01/25 02:10:12;;;;;;;15.67;13.83;;;11.50;91.70;;;;;;4590229;19;20448;-42
2023/01/25 02:11:44;;;;;;;16.40;13.38;;;11.50;91.60;;;;;;4589998;19;21143;-38
2023/01/25 02:13:19;;;;;;;19.90;15.27;;;11.50;91.60;;;;;;4589124;19;20011;-42
2023/01/25 02:14:51;;;;;;;17.93;15.43;;;11.50;91.60;;;;;;4590717;19;20100;-36
2023/01/25 02:16:25;;;;;;;19.77;17.53;;;11.50;91.60;;;;;;4590140;19;20798;-44
2023/01/25 02:17:57;;;;;;;22.97;18.53;;;11.50;91.80;;;;;;4590166;19;20428;-39
2023/01/25 02:19:52;;;;;;;21.05;17.38;;;11.50;91.70;;;;;;4590717;19;20456;-34
2023/01/25 02:21:24;;;;;;;26.17;18.87;;;11.50;91.70;;;;;;4590018;19;20070;-35
2023/01/25 02:23:18;;;;;;;17.00;14.77;;;11.50;91.70;;;;;;4590202;19;21126;-39
2023/01/25 02:25:13;;;;;;;21.88;15.88;;;11.50;91.60;;;;;;4590563;19;20514;-36
2023/01/25 02:26:45;;;;;;;35.47;23.50;;;11.50;91.70;;;;;;4591016;19;20053;-35
2023/01/25 02:28:24;;;;;;;40.73;23.97;;;11.50;91.80;;;;;;4591255;19;20546;-38
2023/01/25 02:29:56;;;;;;;48.87;29.00;;;11.50;91.70;;;;;;4591399;19;20425;-35
2023/01/25 02:31:28;;;;;;;31.50;21.73;;;11.50;91.80;;;;;;4591038;19;20441;-36
2023/01/25 02:32:59;;;;;;;25.98;20.50;;;11.50;91.80;;;;;;4591102;19;20887;-43
2023/01/25 02:34:32;;;;;;;23.33;17.67;;;11.50;91.80;;;;;;4590818;19;20086;-41
2023/01/25 02:36:07;;;;;;;24.55;19.80;;;11.60;91.90;;;;;;4591775;19;20441;-42
2023/01/25 02:37:39;;;;;;;18.83;16.57;;;11.50;91.80;;;;;;4592215;19;20037;-35
2023/01/25 02:39:16;;;;;;;19.85;16.25;;;11.60;91.80;;;;;;4590947;19;20433;-37
2023/01/25 02:41:13;;;;;;;18.63;16.00;;;11.50;91.80;;;;;;4591011;19;20038;-37
2023/01/25 02:42:44;;;;;;;16.80;15.00;;;11.50;91.80;;;;;;4592068;19;20524;-36
2023/01/25 02:44:19;;;;;;;17.15;14.55;;;11.50;91.80;;;;;;4592184;19;20424;-41
2023/01/25 02:45:53;;;;;;;18.33;15.40;;;11.50;91.80;;;;;;4591110;19;20014;-39
2023/01/25 02:47:25;;;;;;;23.13;18.13;;;11.50;91.80;;;;;;4590561;19;20433;-36
2023/01/25 02:48:57;;;;;;;20.27;16.25;;;11.50;91.80;;;;;;4591425;19;20496;-35
2023/01/25 02:50:30;;;;;;;22.73;18.73;;;11.50;91.80;;;;;;4592334;19;20002;-35
2023/01/25 02:52:03;;;;;;;23.10;19.13;;;11.50;91.80;;;;;;4588845;19;20425;-37
2023/01/25 02:53:36;;;;;;;20.83;17.30;;;11.50;91.70;;;;;;4590319;19;20461;-38
2023/01/25 02:55:07;;;;;;;19.92;16.40;;;11.50;91.70;;;;;;4591875;19;20472;-40
2023/01/25 02:56:39;;;;;;;26.17;20.03;;;11.50;91.70;;;;;;4591961;19;20027;-40
2023/01/25 02:58:11;;;;;;;22.42;17.33;;;11.50;91.60;;;;;;4592073;19;20425;-37
2023/01/25 02:59:42;;;;;;;23.13;18.27;;;11.50;91.60;;;;;;4590602;19;20006;-35
2023/01/25 03:01:13;;;;;;;23.40;19.27;;;11.50;91.70;;;;;;4591581;19;20037;-39
2023/01/25 03:02:46;;;;;;;25.80;20.20;;;11.50;91.70;;;;;;4591821;19;20471;-39
2023/01/25 03:04:17;;;;;;;28.92;22.67;;;11.50;91.80;;;;;;4591500;19;20443;-41
2023/01/25 03:05:50;;;;;;;27.43;20.63;;;11.60;91.80;;;;;;4591683;19;20014;-33
2023/01/25 03:07:22;;;;;;;28.60;20.55;;;11.50;91.90;;;;;;4590635;19;20980;-40
2023/01/25 03:08:53;;;;;;;26.10;20.52;;;11.60;91.80;;;;;;4591585;19;20010;-39
2023/01/25 03:10:24;;;;;;;249.32;132.82;;;11.60;91.80;;;;;;4591273;19;20014;-42
2023/01/25 03:11:56;;;;;;;60.55;38.05;;;11.60;91.90;;;;;;4591135;19;20040;-39
2023/01/25 03:13:28;;;;;;;28.07;21.20;;;11.60;91.90;;;;;;4589394;19;20010;-39
2023/01/25 03:14:59;;;;;;;23.60;19.98;;;11.60;91.90;;;;;;4590311;19;20434;-35
2023/01/25 03:16:31;;;;;;;21.15;17.25;;;11.60;91.90;;;;;;4590627;19;20401;-40
2023/01/25 03:18:02;;;;;;;25.10;19.45;;;11.50;91.80;;;;;;4591714;19;20006;-36
2023/01/25 03:19:34;;;;;;;42.55;29.65;;;11.50;91.90;;;;;;4591828;19;20007;-41
2023/01/25 03:21:09;;;;;;;29.83;22.17;;;11.50;91.90;;;;;;4591056;19;20111;-39
2023/01/25 03:22:41;;;;;;;22.30;18.43;;;11.60;91.90;;;;;;4591259;19;20044;-42
2023/01/25 03:24:13;;;;;;;83.17;50.27;;;11.50;91.80;;;;;;4590832;19;20437;-40
2023/01/25 03:25:45;;;;;;;32.60;23.08;;;11.50;91.90;;;;;;4591279;19;20788;-40
2023/01/25 03:27:18;;;;;;;22.40;18.87;;;11.50;91.80;;;;;;4591106;19;20325;-35
2023/01/25 03:28:51;;;;;;;20.50;18.00;;;11.60;91.80;;;;;;4590866;19;20440;-36
2023/01/25 03:30:23;;;;;;;20.25;17.58;;;11.60;91.80;;;;;;4590874;19;20436;-36
2023/01/25 03:31:55;;;;;;;24.57;19.87;;;11.60;91.80;;;;;;4591131;19;20011;-40
2023/01/25 03:33:27;;;;;;;27.50;19.77;;;11.60;91.90;;;;;;4589681;19;20483;-38
2023/01/25 03:35:01;;;;;;;27.60;21.53;;;11.60;91.90;;;;;;4591121;19;20465;-33
2023/01/25 03:36:32;;;;;;;32.42;22.48;;;11.60;91.90;;;;;;4591349;19;20447;-40
2023/01/25 03:38:04;;;;;;;34.80;21.17;;;11.60;91.90;;;;;;4591765;19;20443;-37
2023/01/25 03:39:35;;;;;;;31.70;20.15;;;11.60;92.00;;;;;;4590651;19;20534;-41
2023/01/25 03:41:07;;;;;;;27.75;19.75;;;11.50;91.90;;;;;;4591308;19;20015;-37
2023/01/25 03:42:40;;;;;;;24.17;19.13;;;11.60;91.90;;;;;;4591242;19;20358;-37
2023/01/25 03:44:12;;;;;;;23.33;18.07;;;11.60;92.00;;;;;;4591288;19;21016;-35
2023/01/25 03:45:43;;;;;;;20.15;16.60;;;11.60;91.90;;;;;;4590622;19;20436;-38
2023/01/25 03:47:16;;;;;;;22.97;19.40;;;11.60;91.90;;;;;;4589783;19;20011;-36
2023/01/25 03:48:52;;;;;;;19.97;17.43;;;11.60;91.90;;;;;;4589729;19;20453;-42
2023/01/25 03:50:24;;;;;;;23.73;18.60;;;11.60;91.90;;;;;;4590577;19;20488;-39
2023/01/25 03:51:56;;;;;;;21.17;18.02;;;11.50;91.80;;;;;;4589453;19;20576;-42
2023/01/25 03:53:29;;;;;;;25.90;19.63;;;11.60;91.80;;;;;;4589189;19;20583;-43
2023/01/25 03:55:03;;;;;;;25.10;19.83;;;11.60;91.80;;;;;;4591223;19;20456;-34
2023/01/25 03:56:36;;;;;;;21.93;17.87;;;11.60;91.90;;;;;;4590443;19;21042;-40
2023/01/25 03:58:08;;;;;;;20.73;16.23;;;11.60;91.80;;;;;;4590595;19;20437;-39
2023/01/25 03:59:39;;;;;;;18.63;15.63;;;11.50;91.70;;;;;;4590258;19;20557;-35
2023/01/25 04:01:11;;;;;;;19.05;16.48;;;11.60;91.70;;;;;;4590644;19;20014;-34
2023/01/25 04:02:43;;;;;;;21.00;17.47;;;11.60;91.90;;;;;;4588500;19;20334;-36
2023/01/25 04:04:15;;;;;;;19.05;16.38;;;11.60;91.70;;;;;;4589325;19;20445;-37
2023/01/25 04:05:48;;;;;;;16.83;14.90;;;11.50;91.70;;;;;;4590572;19;20002;-38
2023/01/25 04:07:20;;;;;;;18.47;16.30;;;11.50;91.70;;;;;;4591353;19;20459;-34
2023/01/25 04:08:52;;;;;;;21.50;18.13;;;11.60;91.70;;;;;;4589230;19;21039;-40
2023/01/25 04:10:23;;;;;;;22.63;17.70;;;11.60;91.80;;;;;;4590100;19;20047;-35
2023/01/25 04:11:55;;;;;;;26.92;21.13;;;11.60;91.90;;;;;;4590435;19;20329;-44
2023/01/25 04:13:27;;;;;;;21.70;17.60;;;11.60;91.80;;;;;;4590245;19;20006;-34
2023/01/25 04:14:59;;;;;;;18.53;16.30;;;11.60;91.80;;;;;;4589011;19;20433;-41
2023/01/25 04:16:32;;;;;;;19.70;16.37;;;11.60;91.90;;;;;;4588977;19;21040;-38
2023/01/25 04:18:03;;;;;;;20.70;18.33;;;11.60;91.90;;;;;;4590239;19;20421;-39
2023/01/25 04:19:37;;;;;;;18.87;16.83;;;11.50;92.00;;;;;;4589949;19;20006;-40
2023/01/25 04:21:08;;;;;;;18.40;16.50;;;11.50;92.00;;;;;;4590128;19;20489;-39
2023/01/25 04:22:40;;;;;;;19.20;16.85;;;11.50;91.90;;;;;;4590003;19;20424;-38
2023/01/25 04:24:13;;;;;;;20.40;16.33;;;11.50;91.90;;;;;;4589050;19;20018;-40
2023/01/25 04:25:59;;;;;;;20.63;17.23;;;11.50;91.90;;;;;;4588346;19;20424;-38
2023/01/25 04:27:30;;;;;;;;;;;11.60;91.90;;;;;;4589779;19;20437;-36
2023/01/25 04:29:01;;;;;;;21.27;17.87;;;11.60;92.00;;;;;;4589619;19;19914;-37
2023/01/25 04:30:32;;;;;;;25.70;19.67;;;11.60;92.00;;;;;;4588717;19;20009;-36
2023/01/25 04:32:04;;;;;;;21.17;17.58;;;11.70;92.00;;;;;;4589906;19;20007;-34
2023/01/25 04:33:37;;;;;;;18.27;15.20;;;11.70;91.90;;;;;;4588628;19;20010;-35
2023/01/25 04:35:10;;;;;;;18.37;16.20;;;11.70;91.90;;;;;;4589876;19;20547;-36
2023/01/25 04:36:41;;;;;;;;;;;11.70;91.70;;;;;;4589888;19;20493;-33
2023/01/25 04:38:13;;;;;;;17.03;14.20;;;11.70;91.70;;;;;;4589096;19;19926;-33
2023/01/25 04:39:46;;;;;;;16.97;13.97;;;11.70;91.60;;;;;;4588914;19;20528;-39
2023/01/25 04:41:18;;;;;;;18.47;15.30;;;11.70;91.50;;;;;;4589283;19;20459;-37
2023/01/25 04:42:50;;;;;;;22.80;17.75;;;11.70;91.50;;;;;;4590323;19;20743;-37
2023/01/25 04:44:22;;;;;;;18.23;15.67;;;11.70;91.50;;;;;;4589395;19;20014;-36
2023/01/25 04:45:53;;;;;;;17.20;14.20;;;11.70;91.50;;;;;;4589699;19;20428;-38
2023/01/25 04:47:26;;;;;;;16.43;14.47;;;11.70;91.50;;;;;;4590270;19;20006;-31
2023/01/25 04:48:58;;;;;;;20.10;15.95;;;11.80;91.50;;;;;;4588893;19;20448;-41
2023/01/25 04:50:29;;;;;;;21.50;16.98;;;11.80;91.30;;;;;;4588486;19;20006;-37
2023/01/25 04:52:00;;;;;;;17.58;15.48;;;11.90;91.40;;;;;;4588613;19;20014;-41
2023/01/25 04:53:35;;;;;;;18.95;16.10;;;11.90;91.40;;;;;;4588074;19;19999;-38
2023/01/25 04:55:08;;;;;;;16.83;14.13;;;11.90;91.20;;;;;;4589663;19;20022;-37
2023/01/25 04:56:40;;;;;;;17.10;14.32;;;12.00;91.20;;;;;;4589412;19;20429;-36
2023/01/25 04:58:11;;;;;;;;;;;12.00;91.20;;;;;;4590452;19;20018;-41
2023/01/25 04:59:43;;;;;;;18.93;15.37;;;12.00;91.20;;;;;;4590204;19;19926;-40
2023/01/25 05:01:14;;;;;;;16.50;13.95;;;12.00;91.10;;;;;;4589730;19;20856;-37
2023/01/25 05:02:45;;;;;;;18.85;14.65;;;12.00;91.00;;;;;;4589464;19;20014;-39
2023/01/25 05:04:18;;;;;;;13.40;11.97;;;12.00;91.00;;;;;;4589813;19;20015;-37
2023/01/25 05:05:51;;;;;;;16.83;13.50;;;12.00;90.90;;;;;;4590158;19;20816;-32
2023/01/25 05:07:23;;;;;;;14.37;12.87;;;12.00;91.00;;;;;;4587961;19;20449;-43
2023/01/25 05:08:54;;;;;;;15.02;13.15;;;12.00;91.00;;;;;;4588915;19;20441;-38
2023/01/25 05:10:28;;;;;;;14.53;12.77;;;12.00;91.10;;;;;;4589462;19;20372;-38
2023/01/25 05:11:59;;;;;;;16.25;13.80;;;12.10;91.00;;;;;;4589052;19;21123;-40
2023/01/25 05:13:30;;;;;;;15.07;12.70;;;12.10;91.10;;;;;;4588013;19;20066;-41
2023/01/25 05:15:03;;;;;;;14.50;11.57;;;12.10;91.00;;;;;;4589873;19;20467;-38
2023/01/25 05:16:35;;;;;;;16.60;12.67;;;12.10;91.00;;;;;;4593371;19;20441;-40
2023/01/25 05:18:08;;;;;;;14.27;11.90;;;12.00;91.10;;;;;;4594317;19;20762;-39
2023/01/25 05:19:39;;;;;;;15.48;12.30;;;12.10;91.00;;;;;;4592621;19;20857;-38
2023/01/25 05:21:56;;;;;;;15.07;12.82;;;12.10;91.10;;;;;;4594033;19;20023;-40
2023/01/25 05:23:02;;;;;;;13.80;12.40;;;12.00;91.00;;;;;;4592436;19;20015;-43
2023/01/25 05:24:34;;;;;;;16.30;14.10;;;12.00;91.10;;;;;;4592520;19;20556;-37
2023/01/25 05:28:15;;;;;;;13.73;11.97;;;11.90;91.10;;;;;;4590247;19;20495;-44
2023/01/25 05:29:46;;;;;;;15.30;12.90;;;11.90;91.10;;;;;;4590017;19;20857;-37
2023/01/25 05:31:18;;;;;;;14.10;12.23;;;11.90;91.00;;;;;;4588527;19;20838;-36
2023/01/25 05:32:49;;;;;;;14.10;12.63;;;11.90;91.10;;;;;;4585516;19;20089;-37
2023/01/25 05:34:20;;;;;;;14.70;12.35;;;11.90;91.10;;;;;;4587087;19;20006;-35
2023/01/25 05:35:54;;;;;;;15.17;13.27;;;11.80;91.00;;;;;;4592125;19;20029;-42
2023/01/25 05:37:27;;;;;;;13.33;11.40;;;11.90;91.10;;;;;;4591784;19;20894;-37
2023/01/25 05:38:58;;;;;;;13.10;11.70;;;11.90;91.00;;;;;;4591323;19;20847;-37
2023/01/25 05:40:29;;;;;;;13.35;10.82;;;11.90;91.00;;;;;;4590609;19;20038;-33
2023/01/25 05:42:01;;;;;;;13.88;11.63;;;11.90;90.80;;;;;;4590772;19;20014;-31
2023/01/25 05:43:32;;;;;;;12.95;11.15;;;12.00;90.90;;;;;;4590039;19;20010;-32
2023/01/25 05:45:05;;;;;;;14.23;11.93;;;12.00;90.90;;;;;;4590290;19;20103;-34
2023/01/25 05:46:36;;;;;;;14.23;11.98;;;12.10;90.90;;;;;;4589222;19;20459;-31
2023/01/25 05:48:08;;;;;;;14.10;11.60;;;12.10;90.90;;;;;;4589179;19;20349;-35
2023/01/25 05:49:39;;;;;;;14.80;11.27;;;12.20;91.20;;;;;;4588973;19;20072;-37
2023/01/25 05:51:12;;;;;;;14.87;11.93;;;12.20;90.80;;;;;;4592049;19;20044;-37
2023/01/25 05:52:45;;;;;;;17.67;14.80;;;12.20;90.80;;;;;;4590699;19;20853;-35
2023/01/25 05:54:18;;;;;;;20.93;16.00;;;12.20;90.70;;;;;;4591011;19;20014;-37
2023/01/25 05:55:50;;;;;;;22.00;15.00;;;12.30;90.70;;;;;;4590351;19;20464;-42
2023/01/25 05:57:21;;;;;;;16.65;13.48;;;12.30;90.70;;;;;;4590326;19;20495;-35
2023/01/25 05:58:53;;;;;;;14.63;11.80;;;12.30;90.70;;;;;;4589680;19;20491;-36
2023/01/25 06:00:24;;;;;;;16.13;12.97;;;12.30;90.60;;;;;;4589544;19;20011;-37
2023/01/25 06:01:55;;;;;;;16.00;14.13;;;12.30;90.70;;;;;;4589381;19;20544;-36
2023/01/25 06:03:27;;;;;;;16.75;13.20;;;12.40;90.80;;;;;;4591018;19;20062;-37
2023/01/25 06:04:58;;;;;;;13.65;11.80;;;12.40;90.80;;;;;;4591052;19;20025;-32
2023/01/25 06:06:30;;;;;;;13.40;12.00;;;12.30;90.80;;;;;;4593626;19;20017;-34
2023/01/25 06:08:02;;;;;;;12.90;10.70;;;12.30;90.70;;;;;;4592188;19;20481;-31
2023/01/25 06:09:33;;;;;;;16.00;13.02;;;12.30;90.80;;;;;;4592395;19;20014;-34
2023/01/25 06:11:07;;;;;;;17.17;14.65;;;12.40;90.70;;;;;;4591297;19;20087;-40
2023/01/25 06:12:39;;;;;;;14.87;12.83;;;12.40;90.80;;;;;;4590895;19;20733;-33
2023/01/25 06:14:10;;;;;;;13.98;12.27;;;12.40;90.80;;;;;;4591866;19;21030;-35
2023/01/25 06:15:41;;;;;;;12.57;11.27;;;12.30;90.90;;;;;;4590178;19;20010;-35
2023/01/25 06:17:13;;;;;;;13.80;12.02;;;12.30;90.90;;;;;;4590239;19;20359;-41
2023/01/25 06:18:44;;;;;;;16.35;14.63;;;12.40;91.00;;;;;;4590959;19;20014;-39
2023/01/25 06:20:16;;;;;;;20.13;16.85;;;12.30;90.90;;;;;;4593253;19;20399;-36
2023/01/25 06:21:48;;;;;;;63.72;50.67;;;12.30;90.90;;;;;;4592929;19;20038;-36
2023/01/25 06:23:19;;;;;;;85.10;54.90;;;12.30;91.00;;;;;;4591565;19;20074;-37
2023/01/25 06:24:52;;;;;;;46.33;29.23;;;12.30;91.30;;;;;;4591976;19;20425;-42
2023/01/25 06:26:23;;;;;;;24.85;18.00;;;12.30;91.00;;;;;;4591874;19;20440;-34
2023/01/25 06:27:56;;;;;;;18.77;13.77;;;12.30;91.10;;;;;;4592548;19;20017;-38
2023/01/25 06:29:28;;;;;;;16.38;12.60;;;12.30;91.00;;;;;;4591106;19;20497;-41
2023/01/25 06:31:13;;;;;;;14.80;13.05;;;12.50;91.00;;;;;;4591480;19;20016;-39
2023/01/25 06:32:46;;;;;;;15.30;12.67;;;12.50;90.90;;;;;;4591535;19;20471;-41
2023/01/25 06:34:17;;;;;;;19.30;14.65;;;12.40;91.00;;;;;;4592181;19;20417;-41
2023/01/25 06:35:51;;;;;;;17.83;15.07;;;12.30;91.00;;;;;;4592056;19;20023;-35
2023/01/25 06:37:25;;;;;;;16.10;13.20;;;12.30;91.00;;;;;;4592042;19;20448;-39
2023/01/25 06:38:59;;;;;;;16.50;13.57;;;12.20;91.00;;;;;;4590570;19;20552;-38
2023/01/25 06:40:32;;;;;;;16.27;13.73;;;12.20;91.00;;;;;;4591619;19;20433;-36
2023/01/25 06:42:05;;;;;;;17.20;13.80;;;12.20;91.00;;;;;;4592141;19;20467;-37
2023/01/25 06:43:37;;;;;;;15.53;13.60;;;12.20;91.00;;;;;;4592483;19;20450;-34
2023/01/25 06:45:09;;;;;;;18.80;15.77;;;12.20;91.00;;;;;;4591650;19;20457;-42
2023/01/25 06:46:40;;;;;;;;;;;12.10;91.10;;;;;;4592775;19;20078;-36
2023/01/25 06:48:13;;;;;;;23.63;16.67;;;12.20;91.20;;;;;;4592330;19;19919;-36
2023/01/25 06:49:46;;;;;;;61.27;28.57;;;12.10;91.20;;;;;;4592615;19;20454;-37
2023/01/25 06:51:19;;;;;;;84.77;35.37;;;12.10;91.30;;;;;;4591940;19;20417;-38
2023/01/25 06:52:53;;;;;;;27.40;18.60;;;12.10;91.40;;;;;;4591268;19;20448;-37
2023/01/25 06:54:24;;;;;;;;;;;12.10;91.40;;;;;;4592750;19;21042;-44
2023/01/25 06:56:02;;;;;;;19.63;15.23;;;12.10;91.40;;;;;;4590696;19;19914;-36
2023/01/25 06:57:34;;;;;;;18.60;14.60;;;12.00;91.30;;;;;;4591255;19;20416;-39
2023/01/25 06:59:08;;;;;;;110.17;48.67;;;12.10;91.40;;;;;;4591490;19;20788;-36
2023/01/25 07:00:40;;;;;;;72.60;33.47;;;12.10;91.40;;;;;;4592034;19;20519;-44
2023/01/25 07:02:14;;;;;;;79.70;33.13;;;12.10;91.40;;;;;;4592059;19;20425;-39
2023/01/25 07:03:50;;;;;;;77.47;36.10;;;12.10;91.40;;;;;;4591423;19;20010;-35
2023/01/25 07:05:22;;;;;;;120.10;49.67;;;12.10;91.40;;;;;;4591467;19;21024;-37
2023/01/25 07:06:55;;;;;;;89.93;38.80;;;12.10;91.40;;;;;;4591913;19;21107;-36
2023/01/25 07:08:27;;;;;;;132.55;51.80;;;12.20;91.40;;;;;;4592168;19;20429;-39
2023/01/25 07:10:00;;;;;;;71.17;31.20;;;12.10;91.30;;;;;;4591145;19;20014;-44
2023/01/25 07:11:31;;;;;;;35.30;20.27;;;12.20;91.40;;;;;;4591400;19;20488;-38
2023/01/25 07:13:03;;;;;;;25.98;17.60;;;12.20;91.50;;;;;;4590099;19;21024;-35
2023/01/25 07:14:35;;;;;;;22.05;15.88;;;12.20;91.50;;;;;;4591702;19;20361;-40
2023/01/25 07:16:07;;;;;;;55.88;28.95;;;12.20;91.50;;;;;;4591404;19;20471;-40
2023/01/25 07:17:38;;;;;;;72.57;37.17;;;12.20;91.60;;;;;;4591457;19;20023;-34
2023/01/25 07:19:14;;;;;;;54.65;30.02;;;12.20;91.50;;;;;;4591536;19;20481;-33
2023/01/25 07:20:45;;;;;;;51.07;29.07;;;12.20;91.50;;;;;;4591111;19;20038;-40
2023/01/25 07:22:17;;;;;;;48.63;30.13;;;12.20;91.50;;;;;;4591317;19;20468;-37
2023/01/25 07:23:51;;;;;;;59.63;30.67;;;12.20;91.50;;;;;;4591565;19;20007;-40
2023/01/25 07:25:22;;;;;;;41.87;23.07;;;12.20;91.50;;;;;;4591808;19;20045;-35
2023/01/25 07:26:54;;;;;;;51.15;25.77;;;12.20;91.50;;;;;;4590868;19;21040;-40
2023/01/25 07:28:25;;;;;;;55.60;29.45;;;12.20;91.50;;;;;;4591364;19;20015;-38
2023/01/25 07:29:56;;;;;;;54.92;32.03;;;12.20;91.50;;;;;;4590319;19;20010;-35
2023/01/25 07:31:28;;;;;;;34.15;22.67;;;12.20;91.50;;;;;;4590150;19;20019;-36
2023/01/25 07:32:59;;;;;;;63.03;38.35;;;12.20;91.50;;;;;;4589291;19;20362;-39
2023/01/25 07:34:31;;;;;;;29.73;21.60;;;12.20;91.50;;;;;;4590441;19;20360;-40
2023/01/25 07:36:04;;;;;;;38.15;25.63;;;12.20;91.40;;;;;;4591007;19;20452;-41
2023/01/25 07:37:36;;;;;;;58.00;32.30;;;12.20;91.40;;;;;;4590009;19;20472;-38
2023/01/25 07:39:10;;;;;;;70.73;35.27;;;12.20;91.40;;;;;;4590224;19;20472;-38
2023/01/25 07:40:41;;;;;;;62.77;33.00;;;12.20;91.40;;;;;;4591156;19;21020;-41
2023/01/25 07:42:14;;;;;;;61.05;33.70;;;12.20;91.40;;;;;;4591187;19;20465;-39
2023/01/25 07:43:45;;;;;;;99.83;51.03;;;12.20;91.40;;;;;;4590939;19;20014;-40
2023/01/25 07:45:17;;;;;;;;;;;12.20;91.50;;;;;;4591446;19;20433;-34
2023/01/25 07:46:48;;;;;;;26.77;17.80;;;12.20;91.40;;;;;;4588373;19;19919;-35
2023/01/25 07:48:20;;;;;;;30.17;20.00;;;12.20;91.40;;;;;;4590132;19;20504;-38
2023/01/25 07:49:51;;;;;;;41.13;25.88;;;12.20;91.40;;;;;;4589226;19;20033;-35
2023/01/25 07:51:22;;;;;;;102.43;53.95;;;12.20;91.40;;;;;;4589127;19;20046;-35
2023/01/25 07:52:55;;;;;;;55.57;35.73;;;10.90;91.90;;;;;;4589965;19;20082;-37
2023/01/25 07:54:26;;;;;;;;;;;9.10;94.00;;;;;;4590559;19;20497;-35
2023/01/25 07:55:58;;;;;;;57.17;35.00;;;8.10;95.60;;;;;;4589846;19;20348;-38